Terminal Aerodrome Forecast
Issued by NWS Mt. Holly, NJ

Home | Current Version | Previous Version | Text Only | Print | Product List | Glossary On
Versions: 1 2 3 4 5 6 7 8 9 10 11 12 13 14 15 16 17 18 19
468
FTUS41 KPHI 221130
TAFABE
TAF
KABE 221130Z 2212/2312 28007KT P6SM SKC
     FM221400 29010G18KT P6SM SKC
     FM221800 28014G25KT P6SM BKN060
      TEMPO 2219/2221 30020G32KT -SHRA
     FM222300 30009KT P6SM SKC
     FM230200 33009G18KT P6SM SKC
     FM230600 29004KT P6SM SKC=

USA.gov is the U.S. government's official web portal to all federal, state and local government web resources and services.